sensor_id;sensor_type;location;lat;lon;timestamp;pressure;altitude;pressure_sealevel;temperature;humidity
58879;BME280;44660;42.664;23.266;2023-02-02T00:01:48;94566.53;;;4.58;43.91
58879;BME280;44660;42.664;23.266;2023-02-02T00:04:17;94583.94;;;4.79;44.00
58879;BME280;44660;42.664;23.266;2023-02-02T00:06:43;94599.75;;;4.79;44.25
58879;BME280;44660;42.664;23.266;2023-02-02T00:09:12;94585.94;;;4.77;43.91
58879;BME280;44660;42.664;23.266;2023-02-02T00:11:37;94585.75;;;4.85;44.06
58879;BME280;44660;42.664;23.266;2023-02-02T00:14:03;94578.66;;;4.79;44.00
58879;BME280;44660;42.664;23.266;2023-02-02T00:18:55;94587.38;;;4.60;44.33
58879;BME280;44660;42.664;23.266;2023-02-02T00:21:22;94554.59;;;4.42;44.60
58879;BME280;44660;42.664;23.266;2023-02-02T00:23:48;94509.03;;;4.15;44.62
58879;BME280;44660;42.664;23.266;2023-02-02T00:26:14;94572.03;;;4.30;45.04
58879;BME280;44660;42.664;23.266;2023-02-02T00:28:39;94587.59;;;4.51;45.12
58879;BME280;44660;42.664;23.266;2023-02-02T00:31:05;94590.84;;;4.60;45.11
58879;BME280;44660;42.664;23.266;2023-02-02T00:33:30;94565.31;;;4.40;45.19
58879;BME280;44660;42.664;23.266;2023-02-02T00:35:56;94591.47;;;4.49;45.66
58879;BME280;44660;42.664;23.266;2023-02-02T00:38:21;94529.28;;;3.81;46.15
58879;BME280;44660;42.664;23.266;2023-02-02T00:40:47;94552.56;;;3.90;46.35
58879;BME280;44660;42.664;23.266;2023-02-02T00:43:12;94598.16;;;4.18;46.45
58879;BME280;44660;42.664;23.266;2023-02-02T00:45:38;94571.38;;;4.07;46.57
58879;BME280;44660;42.664;23.266;2023-02-02T00:48:04;94594.09;;;4.29;46.47
58879;BME280;44660;42.664;23.266;2023-02-02T00:50:30;94610.50;;;4.31;46.60
58879;BME280;44660;42.664;23.266;2023-02-02T00:52:55;94581.94;;;4.14;47.10
58879;BME280;44660;42.664;23.266;2023-02-02T00:55:24;94577.47;;;4.21;47.55
58879;BME280;44660;42.664;23.266;2023-02-02T00:57:49;94607.47;;;4.47;47.39
58879;BME280;44660;42.664;23.266;2023-02-02T01:00:25;94583.75;;;4.40;47.32
58879;BME280;44660;42.664;23.266;2023-02-02T01:02:52;94585.97;;;4.50;46.83
58879;BME280;44660;42.664;23.266;2023-02-02T01:05:19;94590.44;;;4.56;46.49
58879;BME280;44660;42.664;23.266;2023-02-02T01:07:45;94546.69;;;4.29;46.45
58879;BME280;44660;42.664;23.266;2023-02-02T01:10:16;94574.66;;;4.50;46.40
58879;BME280;44660;42.664;23.266;2023-02-02T01:12:42;94578.69;;;4.39;46.35
58879;BME280;44660;42.664;23.266;2023-02-02T01:15:09;94572.03;;;4.23;47.16
58879;BME280;44660;42.664;23.266;2023-02-02T01:17:34;94561.28;;;4.11;47.58
58879;BME280;44660;42.664;23.266;2023-02-02T01:20:00;94507.84;;;3.90;47.45
58879;BME280;44660;42.664;23.266;2023-02-02T01:22:26;94559.66;;;3.97;48.12
58879;BME280;44660;42.664;23.266;2023-02-02T01:24:51;94554.56;;;3.88;48.23
58879;BME280;44660;42.664;23.266;2023-02-02T01:27:17;94554.38;;;3.83;48.82
58879;BME280;44660;42.664;23.266;2023-02-02T01:29:42;94552.75;;;3.89;48.71
58879;BME280;44660;42.664;23.266;2023-02-02T01:32:08;94560.03;;;3.93;48.84
58879;BME280;44660;42.664;23.266;2023-02-02T01:34:34;94519.97;;;3.65;49.02
58879;BME280;44660;42.664;23.266;2023-02-02T01:37:00;94556.41;;;3.81;49.46
58879;BME280;44660;42.664;23.266;2023-02-02T01:39:26;94545.47;;;3.84;49.43
58879;BME280;44660;42.664;23.266;2023-02-02T01:41:51;94558.66;;;3.98;49.46
58879;BME280;44660;42.664;23.266;2023-02-02T01:47:24;94547.88;;;3.66;50.84
58879;BME280;44660;42.664;23.266;2023-02-02T01:49:54;94531.28;;;3.58;50.75
58879;BME280;44660;42.664;23.266;2023-02-02T01:52:21;94494.84;;;3.49;50.18
58879;BME280;44660;42.664;23.266;2023-02-02T01:54:59;94517.88;;;3.40;50.46
58879;BME280;44660;42.664;23.266;2023-02-02T01:57:39;94535.94;;;3.70;50.26
58879;BME280;44660;42.664;23.266;2023-02-02T02:00:08;94509.97;;;3.26;50.49
58879;BME280;44660;42.664;23.266;2023-02-02T02:02:35;94524.34;;;3.44;50.91
58879;BME280;44660;42.664;23.266;2023-02-02T02:05:03;94513.81;;;3.44;50.95
58879;BME280;44660;42.664;23.266;2023-02-02T02:07:30;94542.94;;;3.42;50.83
58879;BME280;44660;42.664;23.266;2023-02-02T02:09:56;94484.25;;;3.15;51.20
58879;BME280;44660;42.664;23.266;2023-02-02T02:12:21;94529.66;;;3.57;51.06
58879;BME280;44660;42.664;23.266;2023-02-02T02:14:48;94531.06;;;3.67;51.64
58879;BME280;44660;42.664;23.266;2023-02-02T02:30:05;94532.00;;;3.32;53.22
58879;BME280;44660;42.664;23.266;2023-02-02T02:35:33;94523.09;;;3.26;52.64
58879;BME280;44660;42.664;23.266;2023-02-02T02:38:14;94540.50;;;3.34;52.41
58879;BME280;44660;42.664;23.266;2023-02-02T02:40:50;94536.25;;;3.33;52.82
58879;BME280;44660;42.664;23.266;2023-02-02T02:43:31;94521.25;;;3.20;52.98
58879;BME280;44660;42.664;23.266;2023-02-02T02:46:00;94514.09;;;3.01;53.05
58879;BME280;44660;42.664;23.266;2023-02-02T02:48:28;94538.03;;;3.19;52.77
58879;BME280;44660;42.664;23.266;2023-02-02T02:51:04;94533.78;;;3.18;51.74
58879;BME280;44660;42.664;23.266;2023-02-02T02:53:30;94520.25;;;3.21;51.32
58879;BME280;44660;42.664;23.266;2023-02-02T02:56:19;94539.50;;;3.35;51.79
58879;BME280;44660;42.664;23.266;2023-02-02T02:58:53;94533.84;;;3.32;50.98
58879;BME280;44660;42.664;23.266;2023-02-02T03:01:36;94538.47;;;3.30;51.03
58879;BME280;44660;42.664;23.266;2023-02-02T03:07:10;94525.72;;;3.26;51.58
58879;BME280;44660;42.664;23.266;2023-02-02T03:09:40;94526.31;;;3.22;51.29
58879;BME280;44660;42.664;23.266;2023-02-02T03:12:07;94466.94;;;2.79;52.07
58879;BME280;44660;42.664;23.266;2023-02-02T03:14:34;94522.41;;;3.11;52.22
58879;BME280;44660;42.664;23.266;2023-02-02T03:17:00;94484.81;;;3.04;51.62
58879;BME280;44660;42.664;23.266;2023-02-02T03:19:26;94507.91;;;3.15;52.02
58879;BME280;44660;42.664;23.266;2023-02-02T03:21:51;94522.25;;;3.19;52.28
58879;BME280;44660;42.664;23.266;2023-02-02T03:24:17;94487.00;;;2.93;52.28
58879;BME280;44660;42.664;23.266;2023-02-02T03:26:43;94498.31;;;2.94;52.68
58879;BME280;44660;42.664;23.266;2023-02-02T03:29:09;94494.19;;;2.78;53.13
58879;BME280;44660;42.664;23.266;2023-02-02T03:31:35;94514.44;;;2.84;53.15
58879;BME280;44660;42.664;23.266;2023-02-02T03:34:00;94500.31;;;2.92;52.78
58879;BME280;44660;42.664;23.266;2023-02-02T03:36:26;94487.34;;;2.77;52.77
58879;BME280;44660;42.664;23.266;2023-02-02T03:38:52;94485.59;;;2.91;53.06
58879;BME280;44660;42.664;23.266;2023-02-02T03:41:17;94503.22;;;3.04;52.58
58879;BME280;44660;42.664;23.266;2023-02-02T03:43:43;94453.59;;;2.74;52.66
58879;BME280;44660;42.664;23.266;2023-02-02T03:46:08;94537.59;;;3.09;52.02
58879;BME280;44660;42.664;23.266;2023-02-02T03:48:37;94504.38;;;2.94;52.60
58879;BME280;44660;42.664;23.266;2023-02-02T03:51:07;94495.59;;;2.74;52.24
58879;BME280;44660;42.664;23.266;2023-02-02T03:53:34;94512.03;;;2.89;52.22
58879;BME280;44660;42.664;23.266;2023-02-02T03:56:00;94513.72;;;3.04;51.98
58879;BME280;44660;42.664;23.266;2023-02-02T03:58:25;94521.84;;;3.16;51.34
58879;BME280;44660;42.664;23.266;2023-02-02T04:00:50;94527.25;;;3.01;52.00
58879;BME280;44660;42.664;23.266;2023-02-02T04:03:16;94485.31;;;2.79;51.28
58879;BME280;44660;42.664;23.266;2023-02-02T04:05:41;94488.59;;;2.94;50.86
58879;BME280;44660;42.664;23.266;2023-02-02T04:08:07;94488.56;;;2.81;49.17
58879;BME280;44660;42.664;23.266;2023-02-02T04:10:32;94506.00;;;2.96;49.71
58879;BME280;44660;42.664;23.266;2023-02-02T04:12:58;94535.59;;;3.18;51.42
58879;BME280;44660;42.664;23.266;2023-02-02T04:15:23;94543.28;;;3.13;51.50
58879;BME280;44660;42.664;23.266;2023-02-02T04:17:49;94511.66;;;2.92;51.15
58879;BME280;44660;42.664;23.266;2023-02-02T04:20:14;94565.09;;;3.13;49.90
58879;BME280;44660;42.664;23.266;2023-02-02T04:22:40;94542.00;;;3.08;49.68
58879;BME280;44660;42.664;23.266;2023-02-02T04:25:05;94561.50;;;3.27;49.49
58879;BME280;44660;42.664;23.266;2023-02-02T04:27:31;94557.94;;;3.42;49.73
58879;BME280;44660;42.664;23.266;2023-02-02T04:29:58;94552.59;;;3.29;51.17
58879;BME280;44660;42.664;23.266;2023-02-02T04:32:23;94538.03;;;3.19;51.25
58879;BME280;44660;42.664;23.266;2023-02-02T04:34:49;94560.13;;;3.38;51.09
58879;BME280;44660;42.664;23.266;2023-02-02T04:37:14;94532.78;;;3.19;50.55
58879;BME280;44660;42.664;23.266;2023-02-02T04:39:40;94533.78;;;3.18;50.55
58879;BME280;44660;42.664;23.266;2023-02-02T04:42:05;94530.78;;;3.21;50.64
58879;BME280;44660;42.664;23.266;2023-02-02T04:44:30;94525.88;;;3.12;50.91
58879;BME280;44660;42.664;23.266;2023-02-02T04:46:56;94568.34;;;3.15;51.16
58879;BME280;44660;42.664;23.266;2023-02-02T04:49:21;94507.53;;;2.76;51.51
58879;BME280;44660;42.664;23.266;2023-02-02T04:51:47;94518.88;;;2.77;51.26
58879;BME280;44660;42.664;23.266;2023-02-02T04:54:14;94543.41;;;2.98;51.30
58879;BME280;44660;42.664;23.266;2023-02-02T04:56:39;94542.59;;;2.97;51.14
58879;BME280;44660;42.664;23.266;2023-02-02T04:59:05;94519.63;;;2.71;51.51
58879;BME280;44660;42.664;23.266;2023-02-02T05:01:31;94511.13;;;2.69;51.61
58879;BME280;44660;42.664;23.266;2023-02-02T05:03:57;94526.97;;;2.82;51.37
58879;BME280;44660;42.664;23.266;2023-02-02T05:06:23;94502.19;;;2.56;51.82
58879;BME280;44660;42.664;23.266;2023-02-02T05:08:49;94512.34;;;2.66;51.95
58879;BME280;44660;42.664;23.266;2023-02-02T05:11:21;94563.50;;;2.77;51.97
58879;BME280;44660;42.664;23.266;2023-02-02T05:13:48;94567.28;;;2.68;52.33
58879;BME280;44660;42.664;23.266;2023-02-02T05:16:14;94538.09;;;2.49;52.59
58879;BME280;44660;42.664;23.266;2023-02-02T05:18:41;94537.47;;;2.47;52.03
58879;BME280;44660;42.664;23.266;2023-02-02T05:21:07;94541.97;;;2.60;51.67
58879;BME280;44660;42.664;23.266;2023-02-02T05:23:32;94524.16;;;2.49;51.89
58879;BME280;44660;42.664;23.266;2023-02-02T05:25:58;94494.47;;;2.48;51.42
58879;BME280;44660;42.664;23.266;2023-02-02T05:28:23;94435.91;;;2.06;50.55
58879;BME280;44660;42.664;23.266;2023-02-02T05:30:49;94540.19;;;2.60;51.66
58879;BME280;44660;42.664;23.266;2023-02-02T05:33:15;94543.28;;;2.71;50.49
58879;BME280;44660;42.664;23.266;2023-02-02T05:35:46;94547.56;;;2.85;49.54
58879;BME280;44660;42.664;23.266;2023-02-02T05:38:12;94520.84;;;2.68;49.31
58879;BME280;44660;42.664;23.266;2023-02-02T05:40:38;94559.47;;;2.81;49.94
58879;BME280;44660;42.664;23.266;2023-02-02T05:43:04;94558.25;;;2.77;49.85
58879;BME280;44660;42.664;23.266;2023-02-02T05:45:29;94557.16;;;2.65;50.92
58879;BME280;44660;42.664;23.266;2023-02-02T05:47:55;94558.78;;;2.66;50.81
58879;BME280;44660;42.664;23.266;2023-02-02T05:50:20;94548.50;;;2.64;50.16
58879;BME280;44660;42.664;23.266;2023-02-02T05:52:47;94548.75;;;2.76;50.29
58879;BME280;44660;42.664;23.266;2023-02-02T05:55:13;94575.47;;;2.86;49.42
58879;BME280;44660;42.664;23.266;2023-02-02T05:57:38;94540.66;;;2.71;49.29
58879;BME280;44660;42.664;23.266;2023-02-02T06:00:04;94558.94;;;2.92;48.32
58879;BME280;44660;42.664;23.266;2023-02-02T06:02:30;94556.19;;;3.14;47.77
58879;BME280;44660;42.664;23.266;2023-02-02T06:04:55;94529.69;;;3.02;46.93
58879;BME280;44660;42.664;23.266;2023-02-02T06:07:20;94525.66;;;3.06;46.50
58879;BME280;44660;42.664;23.266;2023-02-02T06:09:46;94548.53;;;3.19;47.69
58879;BME280;44660;42.664;23.266;2023-02-02T06:12:11;94539.03;;;3.18;47.64
58879;BME280;44660;42.664;23.266;2023-02-02T06:14:37;94521.81;;;3.02;47.69
58879;BME280;44660;42.664;23.266;2023-02-02T06:17:02;94559.34;;;3.38;48.03
58879;BME280;44660;42.664;23.266;2023-02-02T06:19:28;94562.34;;;3.41;48.00
58879;BME280;44660;42.664;23.266;2023-02-02T06:21:53;94517.22;;;3.18;47.74
58879;BME280;44660;42.664;23.266;2023-02-02T06:24:19;94545.91;;;3.19;47.90
58879;BME280;44660;42.664;23.266;2023-02-02T06:26:44;94510.13;;;3.18;47.85
58879;BME280;44660;42.664;23.266;2023-02-02T06:29:11;94546.00;;;3.46;47.76
58879;BME280;44660;42.664;23.266;2023-02-02T06:31:37;94471.47;;;2.99;47.68
58879;BME280;44660;42.664;23.266;2023-02-02T06:34:03;94582.28;;;3.71;47.82
58879;BME280;44660;42.664;23.266;2023-02-02T06:36:28;94547.41;;;3.42;47.22
58879;BME280;44660;42.664;23.266;2023-02-02T06:38:55;94576.81;;;3.66;46.90
58879;BME280;44660;42.664;23.266;2023-02-02T06:41:21;94608.22;;;3.87;46.80
58879;BME280;44660;42.664;23.266;2023-02-02T06:43:47;94608.22;;;3.87;46.45
58879;BME280;44660;42.664;23.266;2023-02-02T06:46:14;94561.63;;;3.68;46.14
58879;BME280;44660;42.664;23.266;2023-02-02T06:48:39;94596.91;;;4.00;46.06
58879;BME280;44660;42.664;23.266;2023-02-02T06:51:05;94589.59;;;3.96;46.27
58879;BME280;44660;42.664;23.266;2023-02-02T06:53:31;94569.13;;;3.78;46.75
58879;BME280;44660;42.664;23.266;2023-02-02T06:55:58;94585.16;;;4.03;46.63
58879;BME280;44660;42.664;23.266;2023-02-02T06:58:25;94610.69;;;4.16;46.51
58879;BME280;44660;42.664;23.266;2023-02-02T07:00:51;94612.91;;;4.05;46.72
58879;BME280;44660;42.664;23.266;2023-02-02T07:03:20;94605.84;;;4.19;46.41
58879;BME280;44660;42.664;23.266;2023-02-02T07:05:47;94579.91;;;4.09;46.15
58879;BME280;44660;42.664;23.266;2023-02-02T07:08:13;94624.47;;;4.38;46.38
58879;BME280;44660;42.664;23.266;2023-02-02T07:10:39;94620.84;;;4.52;45.78
58879;BME280;44660;42.664;23.266;2023-02-02T07:13:05;94618.81;;;4.41;45.25
58879;BME280;44660;42.664;23.266;2023-02-02T07:15:32;94606.25;;;4.30;45.79
58879;BME280;44660;42.664;23.266;2023-02-02T07:17:58;94611.53;;;4.50;45.87
58879;BME280;44660;42.664;23.266;2023-02-02T07:20:24;94613.94;;;4.45;45.54
58879;BME280;44660;42.664;23.266;2023-02-02T07:22:49;94607.06;;;4.50;45.70
58879;BME280;44660;42.664;23.266;2023-02-02T07:25:15;94629.75;;;4.51;45.77
58879;BME280;44660;42.664;23.266;2023-02-02T07:27:40;94588.81;;;4.29;46.10
58879;BME280;44660;42.664;23.266;2023-02-02T07:30:06;94517.16;;;3.93;46.04
58879;BME280;44660;42.664;23.266;2023-02-02T07:32:32;94619.63;;;4.75;45.29
58879;BME280;44660;42.664;23.266;2023-02-02T07:34:57;94613.06;;;5.04;44.71
58879;BME280;44660;42.664;23.266;2023-02-02T07:37:23;94599.25;;;5.09;44.03
58879;BME280;44660;42.664;23.266;2023-02-02T07:39:48;94613.97;;;5.37;43.92
58879;BME280;44660;42.664;23.266;2023-02-02T07:42:14;94619.75;;;5.66;42.77
58879;BME280;44660;42.664;23.266;2023-02-02T07:44:39;94588.53;;;5.63;42.84
58879;BME280;44660;42.664;23.266;2023-02-02T07:47:05;94585.00;;;5.76;42.31
58879;BME280;44660;42.664;23.266;2023-02-02T07:49:33;94586.53;;;5.97;42.11
58879;BME280;44660;42.664;23.266;2023-02-02T07:51:59;94616.88;;;6.45;41.34
58879;BME280;44660;42.664;23.266;2023-02-02T07:54:25;94551.72;;;6.38;41.05
58879;BME280;44660;42.664;23.266;2023-02-02T07:56:50;94573.72;;;7.20;39.98
58879;BME280;44660;42.664;23.266;2023-02-02T07:59:15;94544.38;;;8.01;37.94
58879;BME280;44660;42.664;23.266;2023-02-02T08:01:41;94557.69;;;9.43;35.76
58879;BME280;44660;42.664;23.266;2023-02-02T08:04:06;94558.63;;;11.09;33.40
58879;BME280;44660;42.664;23.266;2023-02-02T08:06:34;94513.72;;;12.44;30.78
58879;BME280;44660;42.664;23.266;2023-02-02T08:09:03;94532.94;;;13.32;29.72
58879;BME280;44660;42.664;23.266;2023-02-02T08:11:29;94557.91;;;14.58;27.89
58879;BME280;44660;42.664;23.266;2023-02-02T08:13:56;94499.84;;;14.43;27.52
58879;BME280;44660;42.664;23.266;2023-02-02T08:16:23;94528.06;;;15.52;27.56
58879;BME280;44660;42.664;23.266;2023-02-02T08:18:49;94537.06;;;15.87;26.05
58879;BME280;44660;42.664;23.266;2023-02-02T08:21:15;94531.22;;;15.64;26.19
58879;BME280;44660;42.664;23.266;2023-02-02T08:23:41;94505.16;;;14.99;27.14
58879;BME280;44660;42.664;23.266;2023-02-02T08:26:10;94545.34;;;14.89;27.34
58879;BME280;44660;42.664;23.266;2023-02-02T08:28:36;94499.22;;;13.68;27.75
58879;BME280;44660;42.664;23.266;2023-02-02T08:31:10;94498.50;;;13.30;28.90
58879;BME280;44660;42.664;23.266;2023-02-02T08:33:37;94543.53;;;13.59;28.95
58879;BME280;44660;42.664;23.266;2023-02-02T08:36:03;94507.00;;;13.17;29.05
58879;BME280;44660;42.664;23.266;2023-02-02T08:38:29;94545.88;;;13.02;29.84
58879;BME280;44660;42.664;23.266;2023-02-02T08:40:55;94539.56;;;13.19;29.89
58879;BME280;44660;42.664;23.266;2023-02-02T08:43:21;94506.97;;;13.12;30.26
58879;BME280;44660;42.664;23.266;2023-02-02T08:45:47;94524.19;;;12.51;31.11
58879;BME280;44660;42.664;23.266;2023-02-02T08:48:14;94473.19;;;12.42;31.12
58879;BME280;44660;42.664;23.266;2023-02-02T08:50:41;94515.47;;;13.51;30.09
58879;BME280;44660;42.664;23.266;2023-02-02T08:53:06;94493.13;;;14.97;28.24
58879;BME280;44660;42.664;23.266;2023-02-02T08:55:32;94498.59;;;17.54;25.30
58879;BME280;44660;42.664;23.266;2023-02-02T08:57:57;94465.84;;;20.29;22.54
58879;BME280;44660;42.664;23.266;2023-02-02T09:00:23;94467.94;;;22.33;19.81
58879;BME280;44660;42.664;23.266;2023-02-02T09:02:49;94473.50;;;23.67;18.47
58879;BME280;44660;42.664;23.266;2023-02-02T09:05:15;94474.72;;;25.05;17.14
58879;BME280;44660;42.664;23.266;2023-02-02T09:07:40;94418.19;;;24.10;17.27
58879;BME280;44660;42.664;23.266;2023-02-02T09:10:06;94468.22;;;24.64;16.74
58879;BME280;44660;42.664;23.266;2023-02-02T09:12:31;94457.88;;;25.86;16.34
58879;BME280;44660;42.664;23.266;2023-02-02T09:15:00;94449.44;;;27.61;15.12
58879;BME280;44660;42.664;23.266;2023-02-02T09:17:28;94467.75;;;28.87;14.01
58879;BME280;44660;42.664;23.266;2023-02-02T09:19:54;94453.19;;;30.53;13.21
58879;BME280;44660;42.664;23.266;2023-02-02T09:22:20;94463.25;;;31.54;11.41
58879;BME280;44660;42.664;23.266;2023-02-02T09:24:45;94465.94;;;32.59;11.78
58879;BME280;44660;42.664;23.266;2023-02-02T09:27:11;94445.34;;;32.27;10.90
58879;BME280;44660;42.664;23.266;2023-02-02T09:29:36;94431.72;;;31.82;11.52
58879;BME280;44660;42.664;23.266;2023-02-02T09:32:02;94450.91;;;32.42;11.71
58879;BME280;44660;42.664;23.266;2023-02-02T09:34:27;94441.03;;;33.58;11.12
58879;BME280;44660;42.664;23.266;2023-02-02T09:36:53;94436.72;;;32.29;10.73
58879;BME280;44660;42.664;23.266;2023-02-02T09:39:18;94455.69;;;32.59;10.70
58879;BME280;44660;42.664;23.266;2023-02-02T09:44:29;94456.97;;;32.80;10.89
58879;BME280;44660;42.664;23.266;2023-02-02T09:50:05;94447.16;;;32.75;10.19
58879;BME280;44660;42.664;23.266;2023-02-02T09:52:38;94439.44;;;33.93;10.00
58879;BME280;44660;42.664;23.266;2023-02-02T09:55:15;94426.41;;;34.18;9.63
58879;BME280;44660;42.664;23.266;2023-02-02T09:57:52;94430.00;;;33.58;10.02
58879;BME280;44660;42.664;23.266;2023-02-02T10:00:26;94440.75;;;34.84;9.13
58879;BME280;44660;42.664;23.266;2023-02-02T10:02:57;94419.47;;;34.81;9.52
58879;BME280;44660;42.664;23.266;2023-02-02T10:05:28;94414.63;;;32.14;10.00
58879;BME280;44660;42.664;23.266;2023-02-02T10:07:58;94424.81;;;32.10;10.78
58879;BME280;44660;42.664;23.266;2023-02-02T10:10:34;94437.03;;;30.17;11.79
58879;BME280;44660;42.664;23.266;2023-02-02T10:13:14;94441.97;;;29.54;11.99
58879;BME280;44660;42.664;23.266;2023-02-02T10:18:21;94418.16;;;29.58;12.27
58879;BME280;44660;42.664;23.266;2023-02-02T10:20:59;94410.53;;;29.71;12.01
58879;BME280;44660;42.664;23.266;2023-02-02T10:23:33;94420.25;;;28.76;12.46
58879;BME280;44660;42.664;23.266;2023-02-02T10:26:20;94405.06;;;30.28;11.68
58879;BME280;44660;42.664;23.266;2023-02-02T10:34:30;94406.94;;;27.44;13.46
58879;BME280;44660;42.664;23.266;2023-02-02T10:45:43;94374.47;;;21.65;17.69
58879;BME280;44660;42.664;23.266;2023-02-02T10:48:18;94385.19;;;20.27;19.23
58879;BME280;44660;42.664;23.266;2023-02-02T10:50:49;94348.72;;;18.03;21.73
58879;BME280;44660;42.664;23.266;2023-02-02T10:53:16;94365.97;;;17.64;22.66
58879;BME280;44660;42.664;23.266;2023-02-02T10:55:55;94355.69;;;17.09;22.76
58879;BME280;44660;42.664;23.266;2023-02-02T11:01:08;94323.88;;;15.10;24.95
58879;BME280;44660;42.664;23.266;2023-02-02T11:03:37;94345.09;;;14.96;25.56
58879;BME280;44660;42.664;23.266;2023-02-02T11:06:05;94352.41;;;14.70;25.91
58879;BME280;44660;42.664;23.266;2023-02-02T11:08:53;94343.50;;;14.95;25.25
58879;BME280;44660;42.664;23.266;2023-02-02T11:11:37;94339.88;;;14.55;25.72
58879;BME280;44660;42.664;23.266;2023-02-02T11:16:39;94359.22;;;14.06;26.35
58879;BME280;44660;42.664;23.266;2023-02-02T11:21:54;94351.47;;;13.83;27.28
58879;BME280;44660;42.664;23.266;2023-02-02T11:27:15;94288.69;;;13.39;27.82
58879;BME280;44660;42.664;23.266;2023-02-02T11:29:45;94326.00;;;13.29;27.92
58879;BME280;44660;42.664;23.266;2023-02-02T11:32:26;94307.06;;;13.20;28.01
58879;BME280;44660;42.664;23.266;2023-02-02T11:35:12;94315.94;;;13.52;28.10
58879;BME280;44660;42.664;23.266;2023-02-02T11:38:06;94320.66;;;13.19;28.41
58879;BME280;44660;42.664;23.266;2023-02-02T11:43:00;94302.88;;;12.56;28.76
58879;BME280;44660;42.664;23.266;2023-02-02T11:48:21;94314.16;;;12.73;29.47
58879;BME280;44660;42.664;23.266;2023-02-02T11:50:51;94331.38;;;12.50;29.42
58879;BME280;44660;42.664;23.266;2023-02-02T11:53:33;94239.84;;;12.24;29.38
58879;BME280;44660;42.664;23.266;2023-02-02T11:56:04;94311.53;;;12.84;29.04
58879;BME280;44660;42.664;23.266;2023-02-02T11:58:50;94247.91;;;12.39;29.53
58879;BME280;44660;42.664;23.266;2023-02-02T12:01:28;94307.41;;;12.55;29.62
58879;BME280;44660;42.664;23.266;2023-02-02T12:03:56;94232.63;;;12.19;29.99
58879;BME280;44660;42.664;23.266;2023-02-02T12:06:24;94303.25;;;12.22;30.30
58879;BME280;44660;42.664;23.266;2023-02-02T12:08:53;94300.84;;;12.20;30.10
58879;BME280;44660;42.664;23.266;2023-02-02T12:19:32;94310.28;;;12.44;30.48
58879;BME280;44660;42.664;23.266;2023-02-02T12:36:51;94323.25;;;11.22;30.19
58879;BME280;44660;42.664;23.266;2023-02-02T12:50:26;94324.59;;;10.48;30.85
58879;BME280;44660;42.664;23.266;2023-02-02T12:55:49;94326.41;;;10.25;31.87
58879;BME280;44660;42.664;23.266;2023-02-02T12:58:38;94321.88;;;10.42;31.66
58879;BME280;44660;42.664;23.266;2023-02-02T13:06:50;94323.47;;;10.43;32.01
58879;BME280;44660;42.664;23.266;2023-02-02T13:09:30;94310.00;;;10.50;32.46
58879;BME280;44660;42.664;23.266;2023-02-02T13:12:04;94323.91;;;10.57;32.59
58879;BME280;44660;42.664;23.266;2023-02-02T13:14:35;94337.63;;;10.32;32.63
58879;BME280;44660;42.664;23.266;2023-02-02T13:17:26;94325.03;;;9.83;32.50
58879;BME280;44660;42.664;23.266;2023-02-02T13:19:59;94334.50;;;9.62;32.99
58879;BME280;44660;42.664;23.266;2023-02-02T13:22:38;94285.59;;;9.24;32.73
58879;BME280;44660;42.664;23.266;2023-02-02T13:25:08;94276.38;;;9.26;32.51
58879;BME280;44660;42.664;23.266;2023-02-02T13:27:41;94311.50;;;9.34;32.58
58879;BME280;44660;42.664;23.266;2023-02-02T13:30:26;94301.34;;;8.96;33.16
58879;BME280;44660;42.664;23.266;2023-02-02T13:32:57;94332.69;;;9.17;33.13
58879;BME280;44660;42.664;23.266;2023-02-02T13:38:13;94324.81;;;9.05;33.62
58879;BME280;44660;42.664;23.266;2023-02-02T13:40:42;94324.38;;;8.96;34.02
58879;BME280;44660;42.664;23.266;2023-02-02T13:48:40;94333.41;;;8.42;35.33
58879;BME280;44660;42.664;23.266;2023-02-02T14:01:46;94285.38;;;8.79;38.70
58879;BME280;44660;42.664;23.266;2023-02-02T14:04:21;94319.00;;;8.91;40.05
58879;BME280;44660;42.664;23.266;2023-02-02T14:07:04;94326.28;;;8.55;41.83
58879;BME280;44660;42.664;23.266;2023-02-02T14:09:33;94323.41;;;8.32;42.93
58879;BME280;44660;42.664;23.266;2023-02-02T14:12:05;94323.31;;;8.15;43.87
58879;BME280;44660;42.664;23.266;2023-02-02T14:14:32;94312.50;;;7.93;44.04
58879;BME280;44660;42.664;23.266;2023-02-02T14:17:52;94314.38;;;7.69;44.13
58879;BME280;44660;42.664;23.266;2023-02-02T14:19:57;94314.81;;;7.42;44.48
58879;BME280;44660;42.664;23.266;2023-02-02T14:22:47;94311.25;;;7.60;44.25
58879;BME280;44660;42.664;23.266;2023-02-02T14:27:59;94310.19;;;7.26;45.26
58879;BME280;44660;42.664;23.266;2023-02-02T14:30:31;94312.00;;;7.13;46.29
58879;BME280;44660;42.664;23.266;2023-02-02T14:33:38;94337.03;;;6.99;47.14
58879;BME280;44660;42.664;23.266;2023-02-02T14:36:13;94340.16;;;6.77;48.07
58879;BME280;44660;42.664;23.266;2023-02-02T14:38:57;94344.44;;;6.60;48.36
58879;BME280;44660;42.664;23.266;2023-02-02T14:44:16;94405.19;;;6.41;51.43
58879;BME280;44660;42.664;23.266;2023-02-02T14:46:42;94420.13;;;6.10;55.17
58879;BME280;44660;42.664;23.266;2023-02-02T14:49:17;94441.38;;;5.65;60.31
58879;BME280;44660;42.664;23.266;2023-02-02T14:51:52;94482.06;;;5.50;63.11
58879;BME280;44660;42.664;23.266;2023-02-02T14:54:23;94467.09;;;5.05;65.15
58879;BME280;44660;42.664;23.266;2023-02-02T14:56:54;94503.97;;;5.12;65.12
58879;BME280;44660;42.664;23.266;2023-02-02T14:59:36;94493.72;;;4.90;66.38
58879;BME280;44660;42.664;23.266;2023-02-02T15:02:19;94526.38;;;4.76;67.32
58879;BME280;44660;42.664;23.266;2023-02-02T15:04:46;94529.06;;;4.49;68.84
58879;BME280;44660;42.664;23.266;2023-02-02T15:09:50;94548.72;;;4.13;69.64
58879;BME280;44660;42.664;23.266;2023-02-02T15:12:44;94569.78;;;4.06;69.69
58879;BME280;44660;42.664;23.266;2023-02-02T15:15:27;94577.88;;;4.18;69.16
58879;BME280;44660;42.664;23.266;2023-02-02T15:18:03;94577.06;;;4.11;68.74
58879;BME280;44660;42.664;23.266;2023-02-02T15:20:40;94556.19;;;3.76;68.69